Latest Weather Observations for Borroloola

IDD60801

Issued at 11:41 pm CST Sunday 20 May 2018 (issued every 10 minutes, with the page automatically refreshed every 10 minutes)

About weather observations | Map of weather stations | Latest weather observations for NT | Other Formats
Station Details ID: 014723 Name: BORROLOOLA AIRPORT Lat: -16.08 Lon: 136.30 Height: 16.1 m
Data from the previous 72 hours. | See also: Recent months at Borroloola
Date/Time
CST
Temp
°C
App
Temp
°C
Dew
Point
°C
Rel
Hum
%
Delta-T
°C
Wind Press
QNH
hPa
Press
MSL
hPa
Rain since
9am
mm
Dir  Spd
km/h
Gust
km/h
Spd
kts
Gust
kts
20/11:30pm 19.1 19.1 14.1 73 2.9 NNE 7 7 4 4 1015.4 1015.3 0.0
20/11:00pm 19.3 20.2 13.9 71 3.1 NNE 2 9 1 5 1015.3 1015.2 0.0
20/10:30pm 20.0 21.5 14.6 71 3.1 CALM 0 0 0 0 1015.6 1015.5 0.0
20/10:00pm 20.9 22.5 15.0 69 3.5 CALM 0 0 0 0 1015.7 1015.6 0.0
20/09:30pm 21.8 23.2 15.4 67 3.8 NNE 2 6 1 3 1015.8 1015.7 0.0
20/09:00pm 22.5 24.3 15.4 64 4.2 CALM 0 0 0 0 1015.8 1015.7 0.0
20/08:30pm 22.4 23.8 14.5 61 4.6 CALM 0 0 0 0 1015.7 1015.6 0.0
20/08:00pm 24.3 25.1 15.8 59 5.2 NNE 6 7 3 4 1015.3 1015.2 0.0
20/07:30pm 24.6 26.0 15.5 57 5.5 NNE 2 6 1 3 1014.9 1014.8 0.0
20/07:00pm 25.3 25.7 15.3 54 6.0 NNE 7 9 4 5 1014.5 1014.4 0.0
20/06:30pm 26.2 26.3 15.6 52 6.4 NNE 9 15 5 8 1014.1 1014.0 0.0
20/06:00pm 26.9 26.2 15.3 49 7.0 NNE 13 19 7 10 1013.8 1013.7 0.0
20/05:30pm 28.2 26.6 15.1 44 8.0 NE 17 24 9 13 1013.6 1013.5 0.0
20/05:00pm 29.5 27.4 13.7 38 9.5 NE 17 24 9 13 1013.2 1013.1 0.0
20/04:30pm 31.6 29.4 10.9 28 12.0 E 13 20 7 11 1012.9 1012.8 0.0
20/04:00pm 32.0 29.4 10.7 27 12.3 ESE 15 20 8 11 1012.7 1012.6 0.0
20/03:30pm 31.5 29.1 10.2 27 12.2 E 13 20 7 11 1012.7 1012.6 0.0
20/03:00pm 31.9 29.1 10.0 26 12.5 ESE 15 26 8 14 1012.9 1012.8 0.0
20/02:30pm 32.5 29.3 9.9 25 12.9 ESE 17 24 9 13 1013.0 1012.9 0.0
20/02:00pm 31.3 27.1 8.3 24 12.7 E 20 32 11 17 1013.3 1013.2 0.0
20/01:30pm 31.6 27.5 8.0 23 13.0 SE 19 32 10 17 1013.7 1013.6 0.0
20/01:00pm 31.4 27.3 7.8 23 13.0 ESE 19 33 10 18 1014.1 1014.0 0.0
20/12:30pm 30.8 26.5 7.9 24 12.6 ESE 20 30 11 16 1014.6 1014.5 0.0
20/12:00pm 30.6 26.7 7.1 23 12.7 ESE 17 26 9 14 1015.0 1014.9 0.0
20/11:30am 29.5 25.0 6.8 24 12.1 SSE 20 28 11 15 1015.4 1015.3 0.0
20/11:00am 28.6 23.1 6.1 24 11.8 SE 24 32 13 17 1015.6 1015.5 0.0
20/10:30am 27.8 22.7 6.0 25 11.4 SE 22 32 12 17 1015.7 1015.6 0.0
20/10:00am 27.0 20.6 5.3 25 11.1 SE 28 35 15 19 1015.7 1015.6 0.0
20/09:30am 25.1 19.9 5.3 28 10.0 SE 22 37 12 20 1015.8 1015.7 0.0
20/09:00am 24.3 18.8 4.1 27 10.0 SSE 22 32 12 17 1015.9 1015.8 0.0
20/08:30am 22.6 18.1 4.2 30 9.0 SSE 17 24 9 13 1015.6 1015.5 0.0
20/08:00am 21.4 18.2 4.9 34 8.1 S 11 17 6 9 1015.6 1015.5 0.0
20/07:30am 19.9 16.8 5.5 39 7.1 S 11 13 6 7 1015.0 1014.9 0.0
20/07:00am 18.5 15.6 6.7 46 5.9 S 11 13 6 7 1014.5 1014.4 0.0
20/06:30am 17.5 15.0 6.4 48 5.5 S 9 11 5 6 1014.1 1014.0 0.0
20/06:00am 16.7 14.6 6.8 52 4.9 S 7 9 4 5 1013.7 1013.6 0.0
20/05:30am 16.6 14.6 7.3 54 4.6 S 7 9 4 5 1013.4 1013.3 0.0
20/05:00am 16.5 14.5 8.7 60 4.0 SSW 9 9 5 5 1013.3 1013.2 0.0
20/04:30am 17.2 15.6 8.9 58 4.3 SSW 7 9 4 5 1013.3 1013.2 0.0
20/04:00am 17.6 15.7 9.0 57 4.5 SSW 9 9 5 5 1013.4 1013.3 0.0
20/03:30am 18.2 17.0 9.5 57 4.6 S 6 9 3 5 1013.5 1013.4 0.0
20/03:00am 19.0 16.7 10.6 58 4.5 S 13 15 7 8 1013.5 1013.4 0.0
20/02:30am 17.7 17.5 13.0 74 2.6 SSE 6 11 3 6 1013.8 1013.7 0.0
20/02:00am 17.0 16.1 12.7 76 2.4 SSW 9 11 5 6 1013.8 1013.7 0.0
20/01:30am 17.2 18.0 12.5 74 2.6 CALM 0 0 0 0 1014.0 1013.9 0.0
20/01:00am 17.9 19.0 13.6 76 2.4 CALM 0 0 0 0 1013.9 1013.8 0.0
20/12:30am 18.0 18.8 12.7 71 3.0 CALM 0 0 0 0 1014.3 1014.2 0.0
20/12:00am 19.0 20.1 13.6 71 3.1 CALM 0 0 0 0 1014.5 1014.4 0.0
 
Date/Time
CST
Temp
°C
App
Temp
°C
Dew
Point
°C
Rel
Hum
%
Delta-T
°C
Wind Press
QNH
hPa
Press
MSL
hPa
Rain since
9am
mm
Dir  Spd
km/h
Gust
km/h
Spd
kts
Gust
kts
19/11:30pm 19.5 20.6 13.4 68 3.5 CALM 0 0 0 0 1014.7 1014.6 0.0
19/11:00pm 20.4 21.0 13.1 63 4.2 SSW 2 6 1 3 1014.9 1014.8 0.0
19/10:30pm 21.4 22.5 13.6 61 4.5 CALM 0 0 0 0 1015.0 1014.9 0.0
19/10:00pm 22.5 23.8 14.1 59 4.9 CALM 0 0 0 0 1015.0 1014.9 0.0
19/09:30pm 22.8 24.1 14.1 58 5.1 CALM 0 0 0 0 1015.0 1014.9 0.0
19/09:00pm 23.2 24.6 14.5 58 5.1 CALM 0 0 0 0 1015.0 1014.9 0.0
19/08:30pm 23.2 23.5 14.5 58 5.1 NNE 6 7 3 4 1014.7 1014.6 0.0
19/08:00pm 23.6 23.6 14.3 56 5.5 NNE 7 9 4 5 1014.2 1014.1 0.0
19/07:30pm 24.4 24.0 14.2 53 6.0 NNE 9 11 5 6 1013.8 1013.7 0.0
19/07:00pm 25.4 25.0 14.2 50 6.6 NNE 9 13 5 7 1013.5 1013.4 0.0
19/06:30pm 26.0 25.6 14.1 47 7.1 NNE 9 13 5 7 1013.2 1013.1 0.0
19/06:00pm 27.7 26.4 12.5 39 8.9 E 11 15 6 8 1012.9 1012.8 0.0
19/05:30pm 28.9 27.3 12.8 37 9.5 ENE 13 19 7 10 1012.6 1012.5 0.0
19/05:00pm 29.8 27.8 12.7 35 10.1 E 15 22 8 12 1012.2 1012.1 0.0
19/04:30pm 30.1 28.0 12.5 34 10.4 ESE 15 20 8 11 1011.9 1011.8 0.0
19/04:00pm 30.2 28.0 12.1 32 10.6 ESE 15 24 8 13 1011.6 1011.5 0.0
19/03:30pm 29.9 28.0 11.9 33 10.5 ESE 13 20 7 11 1011.6 1011.5 0.0
19/03:00pm 30.7 27.7 12.1 32 10.9 E 19 28 10 15 1011.6 1011.5 0.0
19/02:30pm 30.4 27.4 11.9 32 10.8 E 19 32 10 17 1011.9 1011.8 0.0
19/02:00pm 29.6 26.8 11.2 32 10.6 ESE 17 24 9 13 1012.0 1011.9 0.0
19/01:30pm 29.6 26.1 10.2 30 11.0 SE 19 28 10 15 1012.4 1012.3 0.0
19/01:00pm 28.9 25.6 9.6 30 10.8 ESE 17 28 9 15 1012.9 1012.8 0.0
19/12:30pm 29.0 25.2 9.2 29 11.0 ESE 19 28 10 15 1013.4 1013.3 0.0
19/12:00pm 29.6 25.3 9.2 28 11.4 SE 22 33 12 18 1013.6 1013.5 0.0
19/11:30am 28.3 24.1 8.1 28 11.0 SE 20 30 11 16 1014.1 1014.0 0.0
19/11:00am 27.2 22.1 6.0 26 11.0 ESE 22 33 12 18 1014.4 1014.3 0.0
19/10:30am 26.4 20.3 6.4 28 10.4 SE 28 35 15 19 1014.8 1014.7 0.0
19/10:00am 25.7 18.7 4.2 25 10.7 SE 30 37 16 20 1015.0 1014.9 0.0
19/09:30am 24.5 17.9 2.0 23 10.7 SE 26 35 14 19 1015.1 1015.0 0.0
19/09:00am 22.9 16.1 0.7 23 10.2 SE 26 39 14 21 1015.0 1014.9 0.0
19/08:30am 21.5 15.4 0.1 24 9.6 SSE 22 32 12 17 1014.8 1014.7 0.0
19/08:00am 19.3 15.1 1.8 31 8.0 S 13 20 7 11 1014.6 1014.5 0.0
19/07:30am 14.6 12.3 5.7 55 4.2 WSW 7 9 4 5 1014.5 1014.4 0.0
19/07:00am 11.3 8.7 6.0 70 2.5 SW 9 11 5 6 1014.2 1014.1 0.0
19/06:30am 10.2 8.1 5.8 74 2.0 SSW 6 7 3 4 1014.0 1013.9 0.0
19/06:00am 10.5 9.1 5.5 71 2.3 SSW 2 7 1 4 1013.7 1013.6 0.0
19/05:30am 10.5 8.8 5.9 73 2.1 SSW 4 6 2 3 1013.6 1013.5 0.0
19/05:00am 10.8 9.5 6.2 73 2.1 SSW 2 6 1 3 1013.6 1013.5 0.0
19/04:30am 10.8 9.9 6.2 73 2.1 CALM 0 0 0 0 1013.6 1013.5 0.0
19/04:00am 10.9 8.8 5.9 71 2.3 SSW 6 7 3 4 1013.7 1013.6 0.0
19/03:30am 10.6 7.9 5.8 72 2.2 SW 9 11 5 6 1013.6 1013.5 0.0
19/03:00am 11.6 10.6 5.5 66 2.8 CALM 0 0 0 0 1013.8 1013.7 0.0
19/02:30am 12.3 11.4 5.9 65 3.0 CALM 0 0 0 0 1014.1 1014.0 0.0
19/02:00am 13.1 12.1 5.5 60 3.6 CALM 0 0 0 0 1014.5 1014.4 0.0
19/01:30am 14.2 12.1 5.6 56 4.1 SSE 6 7 3 4 1014.7 1014.6 0.0
19/01:00am 15.3 13.0 5.5 52 4.7 SSE 7 9 4 5 1015.0 1014.9 0.0
19/12:30am 15.4 12.6 5.3 51 4.8 SSE 9 9 5 5 1015.0 1014.9 0.0
19/12:00am 16.5 13.1 6.1 50 5.1 SSE 13 15 7 8 1015.3 1015.2 0.0
 
Date/Time
CST
Temp
°C
App
Temp
°C
Dew
Point
°C
Rel
Hum
%
Delta-T
°C
Wind Press
QNH
hPa
Press
MSL
hPa
Rain since
9am
mm
Dir  Spd
km/h
Gust
km/h
Spd
kts
Gust
kts
18/11:30pm 16.6 13.8 5.3 47 5.4 SE 9 11 5 6 1015.1 1015.0 0.0
18/11:00pm 17.8 14.7 5.7 45 5.9 SE 11 13 6 7 1015.3 1015.2 0.0
18/10:30pm 16.6 14.3 7.5 55 4.6 ESE 9 13 5 7 1015.2 1015.1 0.0
18/10:00pm 16.3 15.7 7.3 55 4.5 CALM 0 0 0 0 1015.2 1015.1 0.0
18/09:30pm 16.8 16.0 6.6 51 5.0 CALM 0 0 0 0 1015.1 1015.0 0.0
18/09:00pm 17.8 17.0 6.3 47 5.7 CALM 0 0 0 0 1015.1 1015.0 0.0
18/08:30pm 19.1 17.9 6.6 44 6.2 SSE 2 6 1 3 1014.8 1014.7 0.0
18/08:00pm 20.6 18.5 5.8 38 7.4 SSE 6 7 3 4 1014.4 1014.3 0.0
18/07:30pm 22.3 19.9 6.9 37 7.9 SE 9 11 5 6 1014.0 1013.9 0.0
18/07:00pm 22.9 20.7 6.2 34 8.5 SE 7 9 4 5 1013.3 1013.2 0.0
18/06:30pm 24.0 21.4 6.3 32 9.1 SSE 9 11 5 6 1012.8 1012.7 0.0
18/06:00pm 26.1 23.5 6.2 28 10.3 SE 9 11 5 6 1012.6 1012.5 0.0
18/05:30pm 28.0 24.8 6.7 26 11.3 SE 13 20 7 11 1012.2 1012.1 0.0
18/05:00pm 29.0 24.9 6.4 24 12.0 SSE 17 22 9 12 1012.0 1011.9 0.0
18/04:30pm 29.4 25.5 7.3 25 11.9 SE 17 26 9 14 1011.8 1011.7 0.0
18/04:00pm 29.6 25.8 7.5 25 12.0 ESE 17 24 9 13 1011.8 1011.7 0.0
18/03:30pm 29.6 25.2 7.5 25 12.0 SE 20 30 11 16 1011.9 1011.8 0.0
18/03:00pm 30.0 25.5 8.4 26 11.9 SE 22 32 12 17 1012.4 1012.3 0.0
18/02:30pm 30.2 26.3 8.6 26 12.0 SSE 19 30 10 16 1012.8 1012.7 0.0
18/02:00pm 29.6 25.5 8.6 27 11.6 ESE 20 30 11 16 1013.1 1013.0 0.0
18/01:30pm 29.2 25.0 8.3 27 11.4 ESE 20 30 11 16 1013.5 1013.4 0.0
18/01:00pm 29.5 24.9 8.0 26 11.7 ESE 22 32 12 17 1014.1 1014.0 0.0
18/12:30pm 28.7 23.3 7.9 27 11.3 SE 26 37 14 20 1014.5 1014.4 0.0
18/12:00pm 27.9 22.4 7.7 28 10.9 ESE 26 35 14 19 1014.9 1014.8 0.0
18/11:30am 28.0 22.6 7.8 28 10.9 SE 26 39 14 21 1015.0 1014.9 0.0
18/11:00am 26.7 20.2 6.7 28 10.5 SE 30 41 16 22 1015.6 1015.5 0.0
18/10:30am 26.0 18.8 6.1 28 10.3 SE 33 46 18 25 1015.9 1015.8 0.0
18/10:00am 25.4 18.6 5.1 27 10.3 SE 30 41 16 22 1015.9 1015.8 0.0
18/09:30am 24.1 16.6 3.4 26 10.1 SE 32 44 17 24 1016.1 1016.0 0.0
18/09:00am 23.1 15.8 2.6 26 9.8 SSE 30 39 16 21 1016.1 1016.0 0.0
18/08:30am 21.9 15.3 2.1 27 9.2 SSE 26 37 14 20 1015.6 1015.5 0.0
18/08:00am 20.9 14.9 1.2 27 9.0 SSE 22 33 12 18 1015.6 1015.5 0.0
18/07:30am 19.4 14.4 1.4 30 8.1 SSE 17 24 9 13 1015.2 1015.1 0.0
18/07:00am 17.1 12.6 1.9 36 6.8 SSE 15 19 8 10 1015.0 1014.9 0.0
18/06:30am 16.6 12.6 3.0 40 6.2 SSE 13 17 7 9 1014.7 1014.6 0.0
18/06:00am 15.0 12.2 5.2 52 4.6 SSE 9 13 5 7 1014.7 1014.6 0.0
18/05:30am 11.8 9.4 6.9 72 2.3 S 9 11 5 6 1014.6 1014.5 0.0
18/05:00am 12.3 11.7 7.4 72 2.4 CALM 0 6 0 3 1014.6 1014.5 0.0
18/04:30am 12.3 11.7 7.4 72 2.4 CALM 0 0 0 0 1014.7 1014.6 0.0
18/04:00am 12.2 11.8 8.1 76 2.0 CALM 0 0 0 0 1014.5 1014.4 0.0
18/03:30am 12.2 11.9 8.5 78 1.8 CALM 0 0 0 0 1014.6 1014.5 0.0
18/03:00am 12.3 11.9 8.2 76 2.0 CALM 0 0 0 0 1014.4 1014.3 0.0
18/02:30am 12.3 11.8 8.0 75 2.1 CALM 0 0 0 0 1014.6 1014.5 0.0
18/02:00am 12.6 12.2 8.1 74 2.2 CALM 0 0 0 0 1014.9 1014.8 0.0
18/01:30am 13.0 12.7 8.7 75 2.2 CALM 0 0 0 0 1015.1 1015.0 0.0
18/01:00am 13.1 12.7 8.2 72 2.4 CALM 0 0 0 0 1015.2 1015.1 0.0
18/12:30am 13.3 12.8 7.7 69 2.7 CALM 0 0 0 0 1015.3 1015.2 0.0
18/12:00am 14.1 13.7 8.3 68 2.9 CALM 0 0 0 0 1015.3 1015.2 0.0

Other Formats:

Comma delimited format used in spreadsheet applications
http://www.bom.gov.au/fwo/IDD60801/IDD60801.94152.axf

JavaScript Object Notation format (JSON) in row-major order
http://www.bom.gov.au/fwo/IDD60801/IDD60801.94152.json